Ana Sayfa
METAR-TAF:

METAR-TAF

Havaalanları :

Auckland, Yeni Zelanda

Auckland Havalimanı

Enlem: 37-01S, Boylam: 174-48E, yükseklik: 7 m

Güncel hava durumu gözlemi

Rapor saat 19:00 UTC de 29 dakika önce yapıldı.
Rüzgar kuzeydoğudan 5 kt
Sıcaklık 21°C
Nem 88%
Basınç 1018 hPa
Görüş mesafesi 10 km veya daha fazla

METAR: NZAA 191900Z AUTO 05005KT 9999 FEW021/// 21/19 Q1018 NOSIG

Saat: 08:29 (19:29 UTC)

Tahmin

Rapor saat 17:06 UTC de 2 saat ve 23 dakika önce yapıldı.
Ayın 19'si saat 18 UTC'den ayın 20'si saat 18 UTC'ye kadar geçerli Tahmin
Rüzgar kuzey/kuzeydoğudan 10 kt
Görüş mesafesi 10 km veya daha fazla
2500 ft yükseklikte parçalı bulutlu
Dönüşüyor
ayın 20'si saat 10 UTC'den ayın 20'si saat 12 UTC'ye kadar
1500 ft yükseklikte parçalı çok bulutlu

TAF: NZAA 191706Z 1918/2018 02010KT 9999 SCT025 BECMG 2010/2012 BKN015

4.000'den fazla havaalanı için hava durumu gözlemleri ve tahminleri (METAR ve TAF raporları).

Kullanılabilir istasyonlar harita üzerinde sarı ve kırmızı noktalarla gösterilir.

İstasyonun adını görmek için fareyi noktanın üzerinde gezdirin.

Sonrasında hava gözlem ve tahminlerini görmek için tıklayın.

Haritayı değiştirmek için: yaklaştırmak için siyah artı işaretli yeşil düğmeye ve uzaklaştırmak için de eksi işaretli düğmeye hızla tıklayın; bitişik haritalar için yeşil okları kullanın.


METAR-TAF: